sensor_id;sensor_type;location;lat;lon;timestamp;pressure;altitude;pressure_sealevel;temperature;humidity
53246;BME280;39569;51.090;-1.786;2023-04-05T00:01:05;101752.91;;;13.94;47.55
53246;BME280;39569;51.090;-1.786;2023-04-05T00:03:32;101759.81;;;13.89;47.85
53246;BME280;39569;51.090;-1.786;2023-04-05T00:05:59;101754.97;;;13.76;48.15
53246;BME280;39569;51.090;-1.786;2023-04-05T00:08:26;101749.38;;;14.02;47.73
53246;BME280;39569;51.090;-1.786;2023-04-05T00:10:53;101743.69;;;13.97;47.90
53246;BME280;39569;51.090;-1.786;2023-04-05T00:13:20;101745.53;;;13.96;47.71
53246;BME280;39569;51.090;-1.786;2023-04-05T00:15:48;101746.19;;;13.98;48.01
53246;BME280;39569;51.090;-1.786;2023-04-05T00:18:15;101745.69;;;14.03;47.60
53246;BME280;39569;51.090;-1.786;2023-04-05T00:20:47;101741.34;;;13.94;47.69
53246;BME280;39569;51.090;-1.786;2023-04-05T00:23:14;101739.66;;;13.93;47.91
53246;BME280;39569;51.090;-1.786;2023-04-05T00:25:41;101740.69;;;13.92;47.95
53246;BME280;39569;51.090;-1.786;2023-04-05T00:28:08;101739.81;;;13.99;47.78
53246;BME280;39569;51.090;-1.786;2023-04-05T00:30:35;101733.59;;;13.99;47.52
53246;BME280;39569;51.090;-1.786;2023-04-05T00:33:03;101736.28;;;13.99;47.59
53246;BME280;39569;51.090;-1.786;2023-04-05T00:35:29;101740.69;;;13.83;47.76
53246;BME280;39569;51.090;-1.786;2023-04-05T00:37:56;101739.97;;;14.06;47.71
53246;BME280;39569;51.090;-1.786;2023-04-05T00:40:22;101730.53;;;14.18;47.14
53246;BME280;39569;51.090;-1.786;2023-04-05T00:42:49;101733.91;;;14.12;47.19
53246;BME280;39569;51.090;-1.786;2023-04-05T00:45:16;101730.03;;;14.14;47.48
53246;BME280;39569;51.090;-1.786;2023-04-05T00:47:42;101720.28;;;14.13;47.32
53246;BME280;39569;51.090;-1.786;2023-04-05T00:50:10;101717.97;;;14.02;47.37
53246;BME280;39569;51.090;-1.786;2023-04-05T00:52:37;101721.19;;;13.98;47.64
53246;BME280;39569;51.090;-1.786;2023-04-05T00:55:04;101713.63;;;14.01;47.51
53246;BME280;39569;51.090;-1.786;2023-04-05T00:57:32;101708.25;;;14.01;47.66
53246;BME280;39569;51.090;-1.786;2023-04-05T00:59:59;101707.09;;;13.96;47.45
53246;BME280;39569;51.090;-1.786;2023-04-05T01:02:31;101704.56;;;13.94;47.48
53246;BME280;39569;51.090;-1.786;2023-04-05T01:04:58;101701.06;;;13.94;47.43
53246;BME280;39569;51.090;-1.786;2023-04-05T01:07:30;101699.03;;;13.96;47.34
53246;BME280;39569;51.090;-1.786;2023-04-05T01:09:57;101703.38;;;13.97;47.52
53246;BME280;39569;51.090;-1.786;2023-04-05T01:12:26;101695.53;;;13.87;47.55
53246;BME280;39569;51.090;-1.786;2023-04-05T01:14:53;101698.03;;;13.89;47.47
53246;BME280;39569;51.090;-1.786;2023-04-05T01:17:21;101693.69;;;13.88;47.42
53246;BME280;39569;51.090;-1.786;2023-04-05T01:19:48;101696.69;;;13.93;47.82
53246;BME280;39569;51.090;-1.786;2023-04-05T01:22:31;101691.00;;;13.79;47.99
53246;BME280;39569;51.090;-1.786;2023-04-05T01:28:09;101689.34;;;13.78;47.91
53246;BME280;39569;51.090;-1.786;2023-04-05T01:30:39;101684.16;;;13.77;47.83
53246;BME280;39569;51.090;-1.786;2023-04-05T01:33:08;101685.69;;;13.71;47.85
53246;BME280;39569;51.090;-1.786;2023-04-05T01:35:43;101683.50;;;13.67;48.02
53246;BME280;39569;51.090;-1.786;2023-04-05T01:38:14;101683.66;;;13.65;47.86
53246;BME280;39569;51.090;-1.786;2023-04-05T01:40:43;101683.72;;;13.49;48.71
53246;BME280;39569;51.090;-1.786;2023-04-05T01:43:12;101671.78;;;13.60;48.07
53246;BME280;39569;51.090;-1.786;2023-04-05T01:45:41;101675.09;;;13.70;48.03
53246;BME280;39569;51.090;-1.786;2023-04-05T01:48:07;101679.16;;;13.66;47.92
53246;BME280;39569;51.090;-1.786;2023-04-05T01:50:34;101667.28;;;13.36;48.58
53246;BME280;39569;51.090;-1.786;2023-04-05T01:53:00;101669.13;;;13.36;48.95
53246;BME280;39569;51.090;-1.786;2023-04-05T01:55:27;101665.59;;;13.35;48.99
53246;BME280;39569;51.090;-1.786;2023-04-05T01:57:54;101674.13;;;13.39;48.93
53246;BME280;39569;51.090;-1.786;2023-04-05T02:00:21;101669.31;;;13.10;49.56
53246;BME280;39569;51.090;-1.786;2023-04-05T02:02:49;101662.38;;;13.00;49.81
53246;BME280;39569;51.090;-1.786;2023-04-05T02:05:15;101662.75;;;13.29;49.28
53246;BME280;39569;51.090;-1.786;2023-04-05T02:07:42;101658.53;;;13.42;48.80
53246;BME280;39569;51.090;-1.786;2023-04-05T02:10:09;101658.22;;;13.45;49.12
53246;BME280;39569;51.090;-1.786;2023-04-05T02:12:35;101658.59;;;13.81;47.95
53246;BME280;39569;51.090;-1.786;2023-04-05T02:15:02;101655.59;;;13.84;47.64
53246;BME280;39569;51.090;-1.786;2023-04-05T02:17:28;101647.06;;;13.80;47.86
53246;BME280;39569;51.090;-1.786;2023-04-05T02:19:59;101653.88;;;13.91;47.79
53246;BME280;39569;51.090;-1.786;2023-04-05T02:22:34;101650.41;;;13.74;47.76
53246;BME280;39569;51.090;-1.786;2023-04-05T02:25:01;101649.69;;;13.89;47.49
53246;BME280;39569;51.090;-1.786;2023-04-05T02:27:27;101642.25;;;13.60;47.96
53246;BME280;39569;51.090;-1.786;2023-04-05T02:29:54;101641.16;;;13.85;47.55
53246;BME280;39569;51.090;-1.786;2023-04-05T02:32:21;101641.81;;;13.87;47.28
53246;BME280;39569;51.090;-1.786;2023-04-05T02:34:48;101642.38;;;14.13;47.03
53246;BME280;39569;51.090;-1.786;2023-04-05T02:37:17;101641.50;;;14.21;46.52
53246;BME280;39569;51.090;-1.786;2023-04-05T02:39:44;101645.84;;;14.30;46.78
53246;BME280;39569;51.090;-1.786;2023-04-05T02:42:11;101630.28;;;13.78;47.64
53246;BME280;39569;51.090;-1.786;2023-04-05T02:44:37;101635.00;;;14.07;47.08
53246;BME280;39569;51.090;-1.786;2023-04-05T02:47:04;101633.06;;;13.93;46.67
53246;BME280;39569;51.090;-1.786;2023-04-05T02:49:30;101636.59;;;13.15;48.78
53246;BME280;39569;51.090;-1.786;2023-04-05T02:51:57;101630.38;;;13.38;48.30
53246;BME280;39569;51.090;-1.786;2023-04-05T02:54:24;101628.09;;;13.74;47.70
53246;BME280;39569;51.090;-1.786;2023-04-05T02:56:51;101622.81;;;13.97;47.20
53246;BME280;39569;51.090;-1.786;2023-04-05T02:59:18;101620.91;;;14.05;46.71
53246;BME280;39569;51.090;-1.786;2023-04-05T03:01:45;101614.66;;;13.82;47.21
53246;BME280;39569;51.090;-1.786;2023-04-05T03:04:12;101613.19;;;14.10;46.59
53246;BME280;39569;51.090;-1.786;2023-04-05T03:06:38;101616.09;;;14.01;46.70
53246;BME280;39569;51.090;-1.786;2023-04-05T03:09:12;101607.63;;;14.12;46.59
53246;BME280;39569;51.090;-1.786;2023-04-05T03:11:40;101607.59;;;14.20;46.26
53246;BME280;39569;51.090;-1.786;2023-04-05T03:14:07;101611.66;;;14.16;46.41
53246;BME280;39569;51.090;-1.786;2023-04-05T03:16:33;101607.94;;;14.17;46.31
53246;BME280;39569;51.090;-1.786;2023-04-05T03:19:00;101611.41;;;13.95;46.66
53246;BME280;39569;51.090;-1.786;2023-04-05T03:21:29;101609.16;;;14.14;46.62
53246;BME280;39569;51.090;-1.786;2023-04-05T03:23:56;101605.91;;;14.19;46.48
53246;BME280;39569;51.090;-1.786;2023-04-05T03:26:22;101609.16;;;14.14;46.04
53246;BME280;39569;51.090;-1.786;2023-04-05T03:28:50;101611.47;;;14.17;45.93
53246;BME280;39569;51.090;-1.786;2023-04-05T03:31:17;101611.19;;;14.04;46.40
53246;BME280;39569;51.090;-1.786;2023-04-05T03:33:43;101602.63;;;14.09;46.35
53246;BME280;39569;51.090;-1.786;2023-04-05T03:36:10;101602.28;;;14.04;46.37
53246;BME280;39569;51.090;-1.786;2023-04-05T03:38:42;101601.03;;;13.83;46.43
53246;BME280;39569;51.090;-1.786;2023-04-05T03:41:09;101596.06;;;13.72;46.91
53246;BME280;39569;51.090;-1.786;2023-04-05T03:43:35;101601.91;;;13.76;46.95
53246;BME280;39569;51.090;-1.786;2023-04-05T03:46:03;101596.53;;;13.84;46.64
53246;BME280;39569;51.090;-1.786;2023-04-05T03:48:30;101594.78;;;13.99;46.53
53246;BME280;39569;51.090;-1.786;2023-04-05T03:50:56;101589.44;;;13.91;46.81
53246;BME280;39569;51.090;-1.786;2023-04-05T03:53:23;101592.56;;;14.03;46.84
53246;BME280;39569;51.090;-1.786;2023-04-05T03:55:50;101589.34;;;14.07;46.28
53246;BME280;39569;51.090;-1.786;2023-04-05T03:58:18;101579.16;;;14.03;46.77
53246;BME280;39569;51.090;-1.786;2023-04-05T04:00:44;101582.00;;;14.01;46.55
53246;BME280;39569;51.090;-1.786;2023-04-05T04:03:12;101582.59;;;13.80;47.16
53246;BME280;39569;51.090;-1.786;2023-04-05T04:05:39;101578.09;;;13.73;47.50
53246;BME280;39569;51.090;-1.786;2023-04-05T04:08:05;101583.00;;;14.00;47.12
53246;BME280;39569;51.090;-1.786;2023-04-05T04:10:33;101581.13;;;14.09;47.02
53246;BME280;39569;51.090;-1.786;2023-04-05T04:12:59;101583.69;;;13.94;47.02
53246;BME280;39569;51.090;-1.786;2023-04-05T04:15:26;101578.53;;;14.23;46.75
53246;BME280;39569;51.090;-1.786;2023-04-05T04:17:52;101570.09;;;14.26;46.38
53246;BME280;39569;51.090;-1.786;2023-04-05T04:20:20;101569.91;;;14.36;46.16
53246;BME280;39569;51.090;-1.786;2023-04-05T04:22:47;101565.59;;;14.27;46.43
53246;BME280;39569;51.090;-1.786;2023-04-05T04:25:14;101566.94;;;14.31;46.56
53246;BME280;39569;51.090;-1.786;2023-04-05T04:27:43;101568.94;;;14.29;46.86
53246;BME280;39569;51.090;-1.786;2023-04-05T04:30:11;101557.19;;;14.30;46.66
53246;BME280;39569;51.090;-1.786;2023-04-05T04:32:39;101559.34;;;14.34;46.35
53246;BME280;39569;51.090;-1.786;2023-04-05T04:35:19;101556.75;;;14.41;46.35
53246;BME280;39569;51.090;-1.786;2023-04-05T04:37:51;101559.72;;;14.23;47.04
53246;BME280;39569;51.090;-1.786;2023-04-05T04:40:18;101557.19;;;14.22;46.74
53246;BME280;39569;51.090;-1.786;2023-04-05T04:42:47;101559.38;;;13.96;46.72
53246;BME280;39569;51.090;-1.786;2023-04-05T04:45:14;101559.41;;;13.88;47.31
53246;BME280;39569;51.090;-1.786;2023-04-05T04:47:41;101551.13;;;13.97;46.82
53246;BME280;39569;51.090;-1.786;2023-04-05T04:50:08;101550.47;;;13.95;47.31
53246;BME280;39569;51.090;-1.786;2023-04-05T04:52:36;101548.88;;;13.78;47.53
53246;BME280;39569;51.090;-1.786;2023-04-05T04:55:04;101550.78;;;13.69;47.59
53246;BME280;39569;51.090;-1.786;2023-04-05T04:57:31;101555.41;;;13.83;47.13
53246;BME280;39569;51.090;-1.786;2023-04-05T04:59:57;101553.41;;;13.77;47.08
53246;BME280;39569;51.090;-1.786;2023-04-05T05:02:24;101549.78;;;14.01;46.64
53246;BME280;39569;51.090;-1.786;2023-04-05T05:04:50;101544.88;;;14.05;46.75
53246;BME280;39569;51.090;-1.786;2023-04-05T05:07:17;101545.94;;;13.96;46.79
53246;BME280;39569;51.090;-1.786;2023-04-05T05:09:44;101543.09;;;13.97;46.83
53246;BME280;39569;51.090;-1.786;2023-04-05T05:12:12;101549.31;;;13.98;46.85
53246;BME280;39569;51.090;-1.786;2023-04-05T05:14:38;101549.34;;;13.90;46.89
53246;BME280;39569;51.090;-1.786;2023-04-05T05:17:05;101552.00;;;13.90;46.98
53246;BME280;39569;51.090;-1.786;2023-04-05T05:19:32;101553.38;;;13.86;47.64
53246;BME280;39569;51.090;-1.786;2023-04-05T05:21:59;101552.41;;;13.78;47.54
53246;BME280;39569;51.090;-1.786;2023-04-05T05:24:25;101541.94;;;13.92;47.50
53246;BME280;39569;51.090;-1.786;2023-04-05T05:26:52;101552.88;;;13.90;47.51
53246;BME280;39569;51.090;-1.786;2023-04-05T05:29:20;101547.44;;;13.98;47.59
53246;BME280;39569;51.090;-1.786;2023-04-05T05:31:46;101552.72;;;13.83;47.45
53246;BME280;39569;51.090;-1.786;2023-04-05T05:34:13;101545.09;;;13.95;47.65
53246;BME280;39569;51.090;-1.786;2023-04-05T05:36:40;101545.78;;;13.97;47.16
53246;BME280;39569;51.090;-1.786;2023-04-05T05:39:06;101538.72;;;13.96;47.31
53246;BME280;39569;51.090;-1.786;2023-04-05T05:41:33;101543.75;;;13.99;47.09
53246;BME280;39569;51.090;-1.786;2023-04-05T05:44:00;101553.69;;;13.91;47.29
53246;BME280;39569;51.090;-1.786;2023-04-05T05:46:28;101545.59;;;13.99;47.33
53246;BME280;39569;51.090;-1.786;2023-04-05T05:48:54;101537.38;;;13.92;47.37
53246;BME280;39569;51.090;-1.786;2023-04-05T05:51:21;101542.81;;;13.84;47.73
53246;BME280;39569;51.090;-1.786;2023-04-05T05:53:47;101545.31;;;13.86;47.54
53246;BME280;39569;51.090;-1.786;2023-04-05T05:56:14;101542.25;;;13.66;48.12
53246;BME280;39569;51.090;-1.786;2023-04-05T05:58:40;101540.81;;;13.78;47.91
53246;BME280;39569;51.090;-1.786;2023-04-05T06:01:07;101543.47;;;13.86;47.74
53246;BME280;39569;51.090;-1.786;2023-04-05T06:03:37;101547.69;;;13.80;47.68
53246;BME280;39569;51.090;-1.786;2023-04-05T06:06:04;101538.81;;;13.72;48.03
53246;BME280;39569;51.090;-1.786;2023-04-05T06:08:35;101539.28;;;13.83;47.60
53246;BME280;39569;51.090;-1.786;2023-04-05T06:11:02;101532.81;;;14.01;47.28
53246;BME280;39569;51.090;-1.786;2023-04-05T06:13:28;101542.88;;;14.07;47.02
53246;BME280;39569;51.090;-1.786;2023-04-05T06:15:55;101532.38;;;14.20;47.11
53246;BME280;39569;51.090;-1.786;2023-04-05T06:18:21;101521.72;;;14.26;47.02
53246;BME280;39569;51.090;-1.786;2023-04-05T06:20:49;101530.22;;;14.15;46.98
53246;BME280;39569;51.090;-1.786;2023-04-05T06:23:16;101526.91;;;14.05;47.74
53246;BME280;39569;51.090;-1.786;2023-04-05T06:25:42;101516.34;;;14.26;47.41
53246;BME280;39569;51.090;-1.786;2023-04-05T06:28:09;101519.84;;;14.35;47.07
53246;BME280;39569;51.090;-1.786;2023-04-05T06:30:35;101519.75;;;14.51;46.66
53246;BME280;39569;51.090;-1.786;2023-04-05T06:33:02;101519.13;;;14.63;46.41
53246;BME280;39569;51.090;-1.786;2023-04-05T06:35:28;101512.88;;;15.00;45.80
53246;BME280;39569;51.090;-1.786;2023-04-05T06:37:56;101517.88;;;15.03;45.88
53246;BME280;39569;51.090;-1.786;2023-04-05T06:40:23;101518.56;;;15.20;45.17
53246;BME280;39569;51.090;-1.786;2023-04-05T06:42:50;101521.84;;;15.44;44.75
53246;BME280;39569;51.090;-1.786;2023-04-05T06:45:16;101519.78;;;15.61;44.55
53246;BME280;39569;51.090;-1.786;2023-04-05T06:47:43;101515.50;;;15.66;44.40
53246;BME280;39569;51.090;-1.786;2023-04-05T06:50:10;101525.50;;;15.87;44.49
53246;BME280;39569;51.090;-1.786;2023-04-05T06:52:37;101511.03;;;16.09;44.33
53246;BME280;39569;51.090;-1.786;2023-04-05T06:55:06;101518.16;;;16.17;44.19
53246;BME280;39569;51.090;-1.786;2023-04-05T06:57:32;101521.09;;;16.36;43.96
53246;BME280;39569;51.090;-1.786;2023-04-05T06:59:59;101514.91;;;16.42;43.97
53246;BME280;39569;51.090;-1.786;2023-04-05T07:02:25;101516.13;;;16.61;43.70
53246;BME280;39569;51.090;-1.786;2023-04-05T07:04:52;101518.25;;;16.23;43.46
53246;BME280;39569;51.090;-1.786;2023-04-05T07:07:24;101513.56;;;16.32;43.76
53246;BME280;39569;51.090;-1.786;2023-04-05T07:09:51;101511.78;;;16.60;43.90
53246;BME280;39569;51.090;-1.786;2023-04-05T07:12:19;101520.50;;;16.41;43.68
53246;BME280;39569;51.090;-1.786;2023-04-05T07:14:45;101517.75;;;15.48;45.22
53246;BME280;39569;51.090;-1.786;2023-04-05T07:17:12;101514.19;;;16.34;44.30
53246;BME280;39569;51.090;-1.786;2023-04-05T07:19:38;101510.00;;;16.31;44.05
53246;BME280;39569;51.090;-1.786;2023-04-05T07:22:05;101511.63;;;16.26;43.74
53246;BME280;39569;51.090;-1.786;2023-04-05T07:24:32;101514.00;;;16.35;43.74
53246;BME280;39569;51.090;-1.786;2023-04-05T07:26:58;101515.50;;;16.59;43.84
53246;BME280;39569;51.090;-1.786;2023-04-05T07:29:27;101514.84;;;16.78;43.25
53246;BME280;39569;51.090;-1.786;2023-04-05T07:31:54;101516.56;;;17.13;42.79
53246;BME280;39569;51.090;-1.786;2023-04-05T07:34:20;101504.06;;;16.57;43.52
53246;BME280;39569;51.090;-1.786;2023-04-05T07:36:47;101507.19;;;17.09;43.06
53246;BME280;39569;51.090;-1.786;2023-04-05T07:39:14;101510.25;;;17.40;42.01
53246;BME280;39569;51.090;-1.786;2023-04-05T07:41:41;101504.75;;;17.55;42.37
53246;BME280;39569;51.090;-1.786;2023-04-05T07:44:07;101506.66;;;17.54;42.04
53246;BME280;39569;51.090;-1.786;2023-04-05T07:46:35;101500.72;;;17.79;42.00
53246;BME280;39569;51.090;-1.786;2023-04-05T07:49:02;101488.69;;;17.88;41.90
53246;BME280;39569;51.090;-1.786;2023-04-05T07:51:29;101493.25;;;17.81;41.65
53246;BME280;39569;51.090;-1.786;2023-04-05T07:53:55;101497.97;;;16.97;43.40
53246;BME280;39569;51.090;-1.786;2023-04-05T07:56:22;101491.09;;;16.67;43.23
53246;BME280;39569;51.090;-1.786;2023-04-05T07:58:49;101486.13;;;16.98;43.12
53246;BME280;39569;51.090;-1.786;2023-04-05T08:01:19;101485.13;;;16.99;43.20
53246;BME280;39569;51.090;-1.786;2023-04-05T08:03:47;101481.69;;;17.52;42.67
53246;BME280;39569;51.090;-1.786;2023-04-05T08:06:14;101483.84;;;17.70;42.32
53246;BME280;39569;51.090;-1.786;2023-04-05T08:08:41;101477.47;;;17.91;41.65
53246;BME280;39569;51.090;-1.786;2023-04-05T08:11:08;101481.38;;;17.82;41.74
53246;BME280;39569;51.090;-1.786;2023-04-05T08:13:35;101479.63;;;17.20;43.12
53246;BME280;39569;51.090;-1.786;2023-04-05T08:16:04;101483.56;;;18.19;41.40
53246;BME280;39569;51.090;-1.786;2023-04-05T08:18:30;101486.38;;;17.37;42.08
53246;BME280;39569;51.090;-1.786;2023-04-05T08:20:58;101484.03;;;17.62;42.41
53246;BME280;39569;51.090;-1.786;2023-04-05T08:23:25;101476.28;;;18.06;41.78
53246;BME280;39569;51.090;-1.786;2023-04-05T08:25:52;101483.28;;;17.94;41.78
53246;BME280;39569;51.090;-1.786;2023-04-05T08:28:19;101481.06;;;18.24;41.37
53246;BME280;39569;51.090;-1.786;2023-04-05T08:30:46;101475.88;;;18.22;41.71
53246;BME280;39569;51.090;-1.786;2023-04-05T08:33:12;101478.06;;;17.80;42.45
53246;BME280;39569;51.090;-1.786;2023-04-05T08:35:39;101477.47;;;17.84;42.01
53246;BME280;39569;51.090;-1.786;2023-04-05T08:38:08;101468.41;;;18.44;41.27
53246;BME280;39569;51.090;-1.786;2023-04-05T08:40:38;101469.47;;;18.76;41.12
53246;BME280;39569;51.090;-1.786;2023-04-05T08:43:07;101474.81;;;18.10;41.36
53246;BME280;39569;51.090;-1.786;2023-04-05T08:45:35;101476.06;;;18.01;42.63
53246;BME280;39569;51.090;-1.786;2023-04-05T08:48:07;101483.94;;;17.96;42.48
53246;BME280;39569;51.090;-1.786;2023-04-05T08:50:33;101482.16;;;17.28;43.86
53246;BME280;39569;51.090;-1.786;2023-04-05T08:53:00;101484.13;;;17.88;42.52
53246;BME280;39569;51.090;-1.786;2023-04-05T08:55:28;101480.81;;;17.11;44.35
53246;BME280;39569;51.090;-1.786;2023-04-05T08:57:55;101484.59;;;18.11;43.27
53246;BME280;39569;51.090;-1.786;2023-04-05T09:00:24;101477.09;;;18.20;42.54
53246;BME280;39569;51.090;-1.786;2023-04-05T09:02:53;101471.75;;;18.59;41.68
53246;BME280;39569;51.090;-1.786;2023-04-05T09:05:21;101470.88;;;18.26;42.77
53246;BME280;39569;51.090;-1.786;2023-04-05T09:07:48;101472.94;;;19.09;41.46
53246;BME280;39569;51.090;-1.786;2023-04-05T09:10:16;101471.06;;;19.29;41.22
53246;BME280;39569;51.090;-1.786;2023-04-05T09:12:45;101466.03;;;19.90;39.90
53246;BME280;39569;51.090;-1.786;2023-04-05T09:15:13;101471.88;;;20.24;38.96
53246;BME280;39569;51.090;-1.786;2023-04-05T09:17:39;101468.75;;;20.52;38.35
53246;BME280;39569;51.090;-1.786;2023-04-05T09:20:07;101463.16;;;19.72;39.72
53246;BME280;39569;51.090;-1.786;2023-04-05T09:22:40;101470.75;;;20.01;38.82
53246;BME280;39569;51.090;-1.786;2023-04-05T09:25:07;101475.97;;;19.96;39.75
53246;BME280;39569;51.090;-1.786;2023-04-05T09:27:34;101462.75;;;20.43;38.55
53246;BME280;39569;51.090;-1.786;2023-04-05T09:30:02;101454.66;;;20.62;37.64
53246;BME280;39569;51.090;-1.786;2023-04-05T09:32:46;101456.81;;;20.78;37.88
53246;BME280;39569;51.090;-1.786;2023-04-05T09:35:16;101456.41;;;19.94;38.94
53246;BME280;39569;51.090;-1.786;2023-04-05T09:37:49;101454.00;;;20.10;38.52
53246;BME280;39569;51.090;-1.786;2023-04-05T09:40:17;101449.66;;;20.03;39.30
53246;BME280;39569;51.090;-1.786;2023-04-05T09:42:44;101446.75;;;20.35;38.88
53246;BME280;39569;51.090;-1.786;2023-04-05T09:45:12;101454.91;;;19.53;39.01
53246;BME280;39569;51.090;-1.786;2023-04-05T09:47:39;101456.59;;;19.54;39.70
53246;BME280;39569;51.090;-1.786;2023-04-05T09:50:16;101453.63;;;18.92;40.71
53246;BME280;39569;51.090;-1.786;2023-04-05T09:52:43;101447.84;;;19.90;39.12
53246;BME280;39569;51.090;-1.786;2023-04-05T09:55:10;101451.25;;;19.79;38.83
53246;BME280;39569;51.090;-1.786;2023-04-05T09:57:38;101440.53;;;20.53;38.39
53246;BME280;39569;51.090;-1.786;2023-04-05T10:00:05;101448.63;;;18.89;40.94
53246;BME280;39569;51.090;-1.786;2023-04-05T10:02:36;101443.31;;;19.84;39.39
53246;BME280;39569;51.090;-1.786;2023-04-05T10:05:04;101450.50;;;18.95;40.82
53246;BME280;39569;51.090;-1.786;2023-04-05T10:07:31;101453.63;;;18.86;40.83
53246;BME280;39569;51.090;-1.786;2023-04-05T10:09:58;101445.81;;;19.79;39.90
53246;BME280;39569;51.090;-1.786;2023-04-05T10:12:24;101452.63;;;19.95;40.03
53246;BME280;39569;51.090;-1.786;2023-04-05T10:14:52;101454.69;;;19.55;41.03
53246;BME280;39569;51.090;-1.786;2023-04-05T10:17:22;101448.81;;;20.40;39.54
53246;BME280;39569;51.090;-1.786;2023-04-05T10:19:53;101454.81;;;20.67;39.66
53246;BME280;39569;51.090;-1.786;2023-04-05T10:22:22;101458.78;;;19.13;41.25
53246;BME280;39569;51.090;-1.786;2023-04-05T10:24:51;101460.94;;;18.92;42.95
53246;BME280;39569;51.090;-1.786;2023-04-05T10:27:20;101453.44;;;18.61;42.98
53246;BME280;39569;51.090;-1.786;2023-04-05T10:29:50;101453.44;;;19.64;41.71
53246;BME280;39569;51.090;-1.786;2023-04-05T10:32:21;101461.44;;;19.39;42.07
53246;BME280;39569;51.090;-1.786;2023-04-05T10:34:56;101457.81;;;18.42;43.19
53246;BME280;39569;51.090;-1.786;2023-04-05T10:37:27;101459.22;;;18.38;44.74
53246;BME280;39569;51.090;-1.786;2023-04-05T10:39:55;101452.31;;;19.78;42.73
53246;BME280;39569;51.090;-1.786;2023-04-05T10:42:26;101458.00;;;18.93;43.49
53246;BME280;39569;51.090;-1.786;2023-04-05T10:44:56;101460.66;;;19.19;43.20
53246;BME280;39569;51.090;-1.786;2023-04-05T10:47:24;101466.34;;;18.79;43.98
53246;BME280;39569;51.090;-1.786;2023-04-05T10:49:55;101460.13;;;18.52;44.79
53246;BME280;39569;51.090;-1.786;2023-04-05T10:52:22;101457.38;;;18.39;45.08
53246;BME280;39569;51.090;-1.786;2023-04-05T10:54:49;101462.00;;;18.58;44.78
53246;BME280;39569;51.090;-1.786;2023-04-05T10:57:18;101463.44;;;18.74;45.38
53246;BME280;39569;51.090;-1.786;2023-04-05T10:59:45;101461.13;;;18.38;45.95
53246;BME280;39569;51.090;-1.786;2023-04-05T11:02:14;101457.09;;;17.95;46.63
53246;BME280;39569;51.090;-1.786;2023-04-05T11:04:42;101450.28;;;18.25;45.26
53246;BME280;39569;51.090;-1.786;2023-04-05T11:07:14;101453.00;;;18.90;44.48
53246;BME280;39569;51.090;-1.786;2023-04-05T11:09:51;101454.78;;;19.29;44.30
53246;BME280;39569;51.090;-1.786;2023-04-05T11:12:18;101455.28;;;19.06;44.22
53246;BME280;39569;51.090;-1.786;2023-04-05T11:14:45;101461.94;;;18.25;45.79
53246;BME280;39569;51.090;-1.786;2023-04-05T11:17:24;101454.63;;;19.17;45.77
53246;BME280;39569;51.090;-1.786;2023-04-05T11:19:51;101456.91;;;19.14;44.32
53246;BME280;39569;51.090;-1.786;2023-04-05T11:22:25;101443.84;;;18.85;45.58
53246;BME280;39569;51.090;-1.786;2023-04-05T11:24:53;101455.59;;;17.79;46.08
53246;BME280;39569;51.090;-1.786;2023-04-05T11:27:23;101455.13;;;17.62;47.68
53246;BME280;39569;51.090;-1.786;2023-04-05T11:29:50;101450.88;;;18.07;46.76
53246;BME280;39569;51.090;-1.786;2023-04-05T11:32:18;101447.16;;;18.15;45.60
53246;BME280;39569;51.090;-1.786;2023-04-05T11:34:56;101448.25;;;18.53;46.19
53246;BME280;39569;51.090;-1.786;2023-04-05T11:37:36;101443.97;;;20.11;43.99
53246;BME280;39569;51.090;-1.786;2023-04-05T11:40:25;101443.91;;;18.45;46.35
53246;BME280;39569;51.090;-1.786;2023-04-05T11:43:00;101428.97;;;19.26;44.93
53246;BME280;39569;51.090;-1.786;2023-04-05T11:45:26;101438.63;;;18.96;45.67
53246;BME280;39569;51.090;-1.786;2023-04-05T11:47:54;101433.94;;;19.29;44.95
53246;BME280;39569;51.090;-1.786;2023-04-05T11:50:22;101419.56;;;20.17;43.17
53246;BME280;39569;51.090;-1.786;2023-04-05T11:55:32;101415.59;;;20.63;42.87
53246;BME280;39569;51.090;-1.786;2023-04-05T11:57:58;101409.16;;;20.82;42.58
53246;BME280;39569;51.090;-1.786;2023-04-05T12:00:26;101407.75;;;21.33;41.52
53246;BME280;39569;51.090;-1.786;2023-04-05T12:02:54;101409.41;;;20.55;42.18
53246;BME280;39569;51.090;-1.786;2023-04-05T12:05:20;101400.72;;;20.22;43.26
53246;BME280;39569;51.090;-1.786;2023-04-05T12:07:51;101397.81;;;20.85;41.92
53246;BME280;39569;51.090;-1.786;2023-04-05T12:10:18;101397.66;;;21.22;41.30
53246;BME280;39569;51.090;-1.786;2023-04-05T12:12:46;101391.03;;;20.33;42.10
53246;BME280;39569;51.090;-1.786;2023-04-05T12:15:13;101390.75;;;20.41;41.49
53246;BME280;39569;51.090;-1.786;2023-04-05T12:17:43;101392.16;;;20.68;41.38
53246;BME280;39569;51.090;-1.786;2023-04-05T12:20:11;101383.72;;;21.01;40.71
53246;BME280;39569;51.090;-1.786;2023-04-05T12:22:38;101379.09;;;21.19;40.04
53246;BME280;39569;51.090;-1.786;2023-04-05T12:25:05;101387.16;;;21.08;39.52
53246;BME280;39569;51.090;-1.786;2023-04-05T12:27:33;101381.00;;;20.76;40.19
53246;BME280;39569;51.090;-1.786;2023-04-05T12:30:14;101384.44;;;19.91;41.99
53246;BME280;39569;51.090;-1.786;2023-04-05T12:32:42;101380.00;;;20.52;40.39
53246;BME280;39569;51.090;-1.786;2023-04-05T12:35:09;101378.69;;;20.37;40.76
53246;BME280;39569;51.090;-1.786;2023-04-05T12:37:37;101374.09;;;20.80;40.24
53246;BME280;39569;51.090;-1.786;2023-04-05T12:40:04;101372.84;;;21.01;39.38
53246;BME280;39569;51.090;-1.786;2023-04-05T12:42:31;101369.16;;;20.28;41.61
53246;BME280;39569;51.090;-1.786;2023-04-05T12:45:02;101370.28;;;20.81;39.63
53246;BME280;39569;51.090;-1.786;2023-04-05T12:47:32;101367.59;;;20.14;40.76
53246;BME280;39569;51.090;-1.786;2023-04-05T12:50:09;101364.69;;;21.01;39.85